sensor_id;sensor_type;location;lat;lon;timestamp;P1;durP1;ratioP1;P2;durP2;ratioP2
77111;SDS011;66064;50.226;14.344;2023-02-21T00:00:35;8.30;;;5.80;;
77111;SDS011;66064;50.226;14.344;2023-02-21T00:03:23;7.13;;;6.30;;
77111;SDS011;66064;50.226;14.344;2023-02-21T00:06:07;7.30;;;5.78;;
77111;SDS011;66064;50.226;14.344;2023-02-21T00:08:52;7.47;;;6.43;;
77111;SDS011;66064;50.226;14.344;2023-02-21T00:11:39;11.02;;;7.00;;
77111;SDS011;66064;50.226;14.344;2023-02-21T00:17:10;7.03;;;6.32;;
77111;SDS011;66064;50.226;14.344;2023-02-21T00:19:54;7.40;;;6.60;;
77111;SDS011;66064;50.226;14.344;2023-02-21T00:22:39;7.18;;;6.57;;
77111;SDS011;66064;50.226;14.344;2023-02-21T00:25:23;8.65;;;7.15;;
77111;SDS011;66064;50.226;14.344;2023-02-21T00:28:07;9.02;;;8.32;;
77111;SDS011;66064;50.226;14.344;2023-02-21T00:30:51;7.13;;;6.53;;
77111;SDS011;66064;50.226;14.344;2023-02-21T00:33:36;6.95;;;6.35;;
77111;SDS011;66064;50.226;14.344;2023-02-21T00:36:20;9.43;;;6.90;;
77111;SDS011;66064;50.226;14.344;2023-02-21T00:39:05;8.60;;;6.47;;
77111;SDS011;66064;50.226;14.344;2023-02-21T00:41:49;7.78;;;6.28;;
77111;SDS011;66064;50.226;14.344;2023-02-21T00:44:34;7.10;;;6.38;;
77111;SDS011;66064;50.226;14.344;2023-02-21T00:47:18;8.75;;;6.22;;
77111;SDS011;66064;50.226;14.344;2023-02-21T00:50:03;7.70;;;6.97;;
77111;SDS011;66064;50.226;14.344;2023-02-21T00:52:47;7.40;;;6.78;;
77111;SDS011;66064;50.226;14.344;2023-02-21T00:55:32;6.97;;;6.20;;
77111;SDS011;66064;50.226;14.344;2023-02-21T00:58:19;6.55;;;5.95;;
77111;SDS011;66064;50.226;14.344;2023-02-21T01:01:04;8.90;;;7.05;;
77111;SDS011;66064;50.226;14.344;2023-02-21T01:03:49;7.65;;;6.95;;
77111;SDS011;66064;50.226;14.344;2023-02-21T01:06:33;7.70;;;7.03;;
77111;SDS011;66064;50.226;14.344;2023-02-21T01:09:18;7.10;;;6.43;;
77111;SDS011;66064;50.226;14.344;2023-02-21T01:12:02;8.10;;;5.93;;
77111;SDS011;66064;50.226;14.344;2023-02-21T01:14:47;8.63;;;7.25;;
77111;SDS011;66064;50.226;14.344;2023-02-21T01:17:31;8.35;;;7.60;;
77111;SDS011;66064;50.226;14.344;2023-02-21T01:20:15;8.88;;;7.35;;
77111;SDS011;66064;50.226;14.344;2023-02-21T01:23:00;8.35;;;7.63;;
77111;SDS011;66064;50.226;14.344;2023-02-21T01:25:45;9.38;;;7.72;;
77111;SDS011;66064;50.226;14.344;2023-02-21T01:28:29;7.47;;;6.78;;
77111;SDS011;66064;50.226;14.344;2023-02-21T01:31:18;8.55;;;7.03;;
77111;SDS011;66064;50.226;14.344;2023-02-21T01:34:03;8.05;;;7.03;;
77111;SDS011;66064;50.226;14.344;2023-02-21T01:36:47;6.50;;;5.97;;
77111;SDS011;66064;50.226;14.344;2023-02-21T01:39:32;7.68;;;7.05;;
77111;SDS011;66064;50.226;14.344;2023-02-21T01:42:17;7.65;;;6.53;;
77111;SDS011;66064;50.226;14.344;2023-02-21T01:45:17;9.48;;;7.43;;
77111;SDS011;66064;50.226;14.344;2023-02-21T01:48:30;8.30;;;7.25;;
77111;SDS011;66064;50.226;14.344;2023-02-21T01:51:18;7.22;;;6.60;;
77111;SDS011;66064;50.226;14.344;2023-02-21T01:54:05;9.05;;;7.53;;
77111;SDS011;66064;50.226;14.344;2023-02-21T01:56:54;7.28;;;6.75;;
77111;SDS011;66064;50.226;14.344;2023-02-21T01:59:42;8.52;;;5.97;;
77111;SDS011;66064;50.226;14.344;2023-02-21T02:02:32;9.43;;;8.48;;
77111;SDS011;66064;50.226;14.344;2023-02-21T02:05:21;8.75;;;7.63;;
77111;SDS011;66064;50.226;14.344;2023-02-21T02:08:07;7.40;;;6.43;;
77111;SDS011;66064;50.226;14.344;2023-02-21T02:10:57;6.07;;;5.53;;
77111;SDS011;66064;50.226;14.344;2023-02-21T02:16:49;7.75;;;6.95;;
77111;SDS011;66064;50.226;14.344;2023-02-21T02:25:49;10.05;;;7.45;;
77111;SDS011;66064;50.226;14.344;2023-02-21T02:36:23;7.95;;;7.22;;
77111;SDS011;66064;50.226;14.344;2023-02-21T02:41:39;8.95;;;8.13;;
77111;SDS011;66064;50.226;14.344;2023-02-21T02:44:30;9.35;;;7.88;;
77111;SDS011;66064;50.226;14.344;2023-02-21T02:47:04;8.48;;;7.32;;
77111;SDS011;66064;50.226;14.344;2023-02-21T02:49:35;7.15;;;6.13;;
77111;SDS011;66064;50.226;14.344;2023-02-21T02:52:06;7.35;;;6.65;;
77111;SDS011;66064;50.226;14.344;2023-02-21T02:54:34;8.20;;;6.40;;
77111;SDS011;66064;50.226;14.344;2023-02-21T02:57:01;9.23;;;6.40;;
77111;SDS011;66064;50.226;14.344;2023-02-21T02:59:34;8.27;;;6.53;;
77111;SDS011;66064;50.226;14.344;2023-02-21T03:02:09;9.07;;;7.85;;
77111;SDS011;66064;50.226;14.344;2023-02-21T03:05:25;7.80;;;7.05;;
77111;SDS011;66064;50.226;14.344;2023-02-21T03:11:29;7.55;;;6.95;;
77111;SDS011;66064;50.226;14.344;2023-02-21T03:13:42;6.97;;;6.45;;
77111;SDS011;66064;50.226;14.344;2023-02-21T03:19:10;8.95;;;6.80;;
77111;SDS011;66064;50.226;14.344;2023-02-21T03:21:41;10.00;;;7.47;;
77111;SDS011;66064;50.226;14.344;2023-02-21T03:24:12;7.35;;;6.45;;
77111;SDS011;66064;50.226;14.344;2023-02-21T03:26:41;9.93;;;8.27;;
77111;SDS011;66064;50.226;14.344;2023-02-21T03:29:12;8.15;;;7.35;;
77111;SDS011;66064;50.226;14.344;2023-02-21T03:31:43;7.57;;;6.82;;
77111;SDS011;66064;50.226;14.344;2023-02-21T03:34:13;8.98;;;7.53;;
77111;SDS011;66064;50.226;14.344;2023-02-21T03:36:39;8.57;;;7.88;;
77111;SDS011;66064;50.226;14.344;2023-02-21T03:39:07;7.63;;;6.38;;
77111;SDS011;66064;50.226;14.344;2023-02-21T03:41:32;9.27;;;8.50;;
77111;SDS011;66064;50.226;14.344;2023-02-21T03:43:58;9.00;;;8.15;;
77111;SDS011;66064;50.226;14.344;2023-02-21T03:46:24;8.45;;;7.65;;
77111;SDS011;66064;50.226;14.344;2023-02-21T03:48:50;8.40;;;7.15;;
77111;SDS011;66064;50.226;14.344;2023-02-21T03:51:16;8.02;;;7.22;;
77111;SDS011;66064;50.226;14.344;2023-02-21T03:53:42;8.63;;;7.15;;
77111;SDS011;66064;50.226;14.344;2023-02-21T03:56:08;8.50;;;7.70;;
77111;SDS011;66064;50.226;14.344;2023-02-21T03:58:34;8.38;;;7.57;;
77111;SDS011;66064;50.226;14.344;2023-02-21T04:00:59;8.38;;;7.65;;
77111;SDS011;66064;50.226;14.344;2023-02-21T04:03:26;8.48;;;7.15;;
77111;SDS011;66064;50.226;14.344;2023-02-21T04:05:51;8.18;;;7.05;;
77111;SDS011;66064;50.226;14.344;2023-02-21T04:08:17;7.45;;;6.75;;
77111;SDS011;66064;50.226;14.344;2023-02-21T04:10:43;7.82;;;7.05;;
77111;SDS011;66064;50.226;14.344;2023-02-21T04:13:09;8.35;;;7.57;;
77111;SDS011;66064;50.226;14.344;2023-02-21T04:15:35;8.00;;;7.28;;
77111;SDS011;66064;50.226;14.344;2023-02-21T04:18:01;7.57;;;6.75;;
77111;SDS011;66064;50.226;14.344;2023-02-21T04:20:27;8.52;;;7.72;;
77111;SDS011;66064;50.226;14.344;2023-02-21T04:22:53;8.25;;;7.50;;
77111;SDS011;66064;50.226;14.344;2023-02-21T04:25:18;8.43;;;6.65;;
77111;SDS011;66064;50.226;14.344;2023-02-21T04:27:44;8.20;;;7.40;;
77111;SDS011;66064;50.226;14.344;2023-02-21T04:30:10;7.47;;;6.70;;
77111;SDS011;66064;50.226;14.344;2023-02-21T04:32:37;8.73;;;7.93;;
77111;SDS011;66064;50.226;14.344;2023-02-21T04:35:02;8.23;;;6.40;;
77111;SDS011;66064;50.226;14.344;2023-02-21T04:37:28;8.43;;;6.18;;
77111;SDS011;66064;50.226;14.344;2023-02-21T04:39:54;7.97;;;7.38;;
77111;SDS011;66064;50.226;14.344;2023-02-21T04:42:20;6.57;;;5.97;;
77111;SDS011;66064;50.226;14.344;2023-02-21T04:44:46;6.88;;;6.22;;
77111;SDS011;66064;50.226;14.344;2023-02-21T04:47:12;7.20;;;6.53;;
77111;SDS011;66064;50.226;14.344;2023-02-21T04:49:38;9.30;;;7.07;;
77111;SDS011;66064;50.226;14.344;2023-02-21T04:52:04;8.63;;;7.13;;
77111;SDS011;66064;50.226;14.344;2023-02-21T04:54:29;6.78;;;6.07;;
77111;SDS011;66064;50.226;14.344;2023-02-21T04:56:56;6.55;;;5.93;;
77111;SDS011;66064;50.226;14.344;2023-02-21T04:59:21;6.57;;;5.97;;
77111;SDS011;66064;50.226;14.344;2023-02-21T05:01:47;5.55;;;5.15;;
77111;SDS011;66064;50.226;14.344;2023-02-21T05:04:13;6.93;;;6.20;;
77111;SDS011;66064;50.226;14.344;2023-02-21T05:06:40;6.80;;;6.30;;
77111;SDS011;66064;50.226;14.344;2023-02-21T05:09:05;6.97;;;6.57;;
77111;SDS011;66064;50.226;14.344;2023-02-21T05:11:32;7.78;;;7.10;;
77111;SDS011;66064;50.226;14.344;2023-02-21T05:13:59;6.43;;;5.88;;
77111;SDS011;66064;50.226;14.344;2023-02-21T05:16:25;6.93;;;5.68;;
77111;SDS011;66064;50.226;14.344;2023-02-21T05:18:51;8.00;;;7.25;;
77111;SDS011;66064;50.226;14.344;2023-02-21T05:21:17;6.50;;;6.00;;
77111;SDS011;66064;50.226;14.344;2023-02-21T05:23:44;5.15;;;4.80;;
77111;SDS011;66064;50.226;14.344;2023-02-21T05:26:21;6.88;;;6.28;;
77111;SDS011;66064;50.226;14.344;2023-02-21T05:29:07;5.97;;;5.55;;
77111;SDS011;66064;50.226;14.344;2023-02-21T05:31:33;7.40;;;6.75;;
77111;SDS011;66064;50.226;14.344;2023-02-21T05:33:59;7.55;;;6.78;;
77111;SDS011;66064;50.226;14.344;2023-02-21T05:36:26;7.85;;;7.30;;
77111;SDS011;66064;50.226;14.344;2023-02-21T05:38:52;7.00;;;6.18;;
77111;SDS011;66064;50.226;14.344;2023-02-21T05:41:20;7.72;;;7.05;;
77111;SDS011;66064;50.226;14.344;2023-02-21T05:43:46;7.15;;;6.43;;
77111;SDS011;66064;50.226;14.344;2023-02-21T05:46:21;6.47;;;5.93;;
77111;SDS011;66064;50.226;14.344;2023-02-21T05:48:49;7.07;;;6.43;;
77111;SDS011;66064;50.226;14.344;2023-02-21T05:51:15;5.78;;;5.38;;
77111;SDS011;66064;50.226;14.344;2023-02-21T05:53:42;6.05;;;5.60;;
77111;SDS011;66064;50.226;14.344;2023-02-21T05:56:08;7.70;;;6.05;;
77111;SDS011;66064;50.226;14.344;2023-02-21T05:58:34;5.95;;;5.38;;
77111;SDS011;66064;50.226;14.344;2023-02-21T06:01:00;5.35;;;4.85;;
77111;SDS011;66064;50.226;14.344;2023-02-21T06:03:27;7.50;;;6.90;;
77111;SDS011;66064;50.226;14.344;2023-02-21T06:05:53;6.75;;;6.15;;
77111;SDS011;66064;50.226;14.344;2023-02-21T06:08:18;7.55;;;6.43;;
77111;SDS011;66064;50.226;14.344;2023-02-21T06:10:44;6.68;;;5.05;;
77111;SDS011;66064;50.226;14.344;2023-02-21T06:13:10;6.50;;;6.00;;
77111;SDS011;66064;50.226;14.344;2023-02-21T06:15:36;7.43;;;6.30;;
77111;SDS011;66064;50.226;14.344;2023-02-21T06:18:02;6.18;;;5.72;;
77111;SDS011;66064;50.226;14.344;2023-02-21T06:20:28;6.20;;;5.70;;
77111;SDS011;66064;50.226;14.344;2023-02-21T06:22:54;6.38;;;5.88;;
77111;SDS011;66064;50.226;14.344;2023-02-21T06:25:20;6.40;;;5.80;;
77111;SDS011;66064;50.226;14.344;2023-02-21T06:27:46;7.65;;;7.00;;
77111;SDS011;66064;50.226;14.344;2023-02-21T06:30:12;7.38;;;6.13;;
77111;SDS011;66064;50.226;14.344;2023-02-21T06:32:38;6.90;;;5.65;;
77111;SDS011;66064;50.226;14.344;2023-02-21T06:35:04;6.30;;;5.80;;
77111;SDS011;66064;50.226;14.344;2023-02-21T06:37:30;7.05;;;6.45;;
77111;SDS011;66064;50.226;14.344;2023-02-21T06:39:56;6.13;;;5.63;;
77111;SDS011;66064;50.226;14.344;2023-02-21T06:42:22;6.10;;;5.65;;
77111;SDS011;66064;50.226;14.344;2023-02-21T06:44:48;6.03;;;5.57;;
77111;SDS011;66064;50.226;14.344;2023-02-21T06:47:14;5.47;;;4.97;;
77111;SDS011;66064;50.226;14.344;2023-02-21T06:49:41;6.50;;;6.00;;
77111;SDS011;66064;50.226;14.344;2023-02-21T06:52:07;6.63;;;6.13;;
77111;SDS011;66064;50.226;14.344;2023-02-21T06:54:34;6.70;;;5.40;;
77111;SDS011;66064;50.226;14.344;2023-02-21T06:57:00;7.20;;;6.60;;
77111;SDS011;66064;50.226;14.344;2023-02-21T06:59:29;5.80;;;5.30;;
77111;SDS011;66064;50.226;14.344;2023-02-21T07:01:55;4.78;;;4.35;;
77111;SDS011;66064;50.226;14.344;2023-02-21T07:04:22;5.97;;;5.38;;
77111;SDS011;66064;50.226;14.344;2023-02-21T07:06:48;7.05;;;6.47;;
77111;SDS011;66064;50.226;14.344;2023-02-21T07:09:14;6.97;;;6.38;;
77111;SDS011;66064;50.226;14.344;2023-02-21T07:11:40;6.85;;;6.30;;
77111;SDS011;66064;50.226;14.344;2023-02-21T07:14:07;6.20;;;5.70;;
77111;SDS011;66064;50.226;14.344;2023-02-21T07:16:32;6.43;;;5.88;;
77111;SDS011;66064;50.226;14.344;2023-02-21T07:18:58;6.97;;;6.30;;
77111;SDS011;66064;50.226;14.344;2023-02-21T07:21:24;5.82;;;5.32;;
77111;SDS011;66064;50.226;14.344;2023-02-21T07:23:51;6.20;;;5.60;;
77111;SDS011;66064;50.226;14.344;2023-02-21T07:26:17;6.30;;;5.35;;
77111;SDS011;66064;50.226;14.344;2023-02-21T07:28:45;7.60;;;6.90;;
77111;SDS011;66064;50.226;14.344;2023-02-21T07:31:12;7.30;;;6.40;;
77111;SDS011;66064;50.226;14.344;2023-02-21T07:33:38;5.53;;;5.03;;
77111;SDS011;66064;50.226;14.344;2023-02-21T07:36:04;6.20;;;5.60;;
77111;SDS011;66064;50.226;14.344;2023-02-21T07:38:30;6.40;;;5.80;;
77111;SDS011;66064;50.226;14.344;2023-02-21T07:40:57;6.63;;;5.93;;
77111;SDS011;66064;50.226;14.344;2023-02-21T07:43:25;8.52;;;5.53;;
77111;SDS011;66064;50.226;14.344;2023-02-21T07:45:51;6.32;;;5.72;;
77111;SDS011;66064;50.226;14.344;2023-02-21T07:48:17;6.43;;;5.75;;
77111;SDS011;66064;50.226;14.344;2023-02-21T07:50:43;8.45;;;7.75;;
77111;SDS011;66064;50.226;14.344;2023-02-21T07:53:10;6.53;;;5.97;;
77111;SDS011;66064;50.226;14.344;2023-02-21T07:55:37;6.85;;;6.28;;
77111;SDS011;66064;50.226;14.344;2023-02-21T07:58:03;6.82;;;6.22;;
77111;SDS011;66064;50.226;14.344;2023-02-21T08:00:29;7.10;;;5.55;;
77111;SDS011;66064;50.226;14.344;2023-02-21T08:02:56;5.75;;;5.25;;
77111;SDS011;66064;50.226;14.344;2023-02-21T08:05:22;6.70;;;6.10;;
77111;SDS011;66064;50.226;14.344;2023-02-21T08:07:48;6.00;;;5.45;;
77111;SDS011;66064;50.226;14.344;2023-02-21T08:10:18;6.50;;;5.90;;
77111;SDS011;66064;50.226;14.344;2023-02-21T08:12:50;6.57;;;5.07;;
77111;SDS011;66064;50.226;14.344;2023-02-21T08:15:16;7.60;;;7.10;;
77111;SDS011;66064;50.226;14.344;2023-02-21T08:17:42;6.50;;;6.00;;
77111;SDS011;66064;50.226;14.344;2023-02-21T08:20:08;7.07;;;6.15;;
77111;SDS011;66064;50.226;14.344;2023-02-21T08:22:37;6.13;;;5.22;;
77111;SDS011;66064;50.226;14.344;2023-02-21T08:25:03;8.45;;;7.70;;
77111;SDS011;66064;50.226;14.344;2023-02-21T08:27:29;7.47;;;6.63;;
77111;SDS011;66064;50.226;14.344;2023-02-21T08:29:54;6.05;;;5.57;;
77111;SDS011;66064;50.226;14.344;2023-02-21T08:32:21;6.57;;;5.60;;
77111;SDS011;66064;50.226;14.344;2023-02-21T08:34:47;7.47;;;5.95;;
77111;SDS011;66064;50.226;14.344;2023-02-21T08:37:13;6.72;;;5.68;;
77111;SDS011;66064;50.226;14.344;2023-02-21T08:39:59;6.70;;;6.13;;
77111;SDS011;66064;50.226;14.344;2023-02-21T08:42:25;9.55;;;7.20;;
77111;SDS011;66064;50.226;14.344;2023-02-21T08:44:51;6.78;;;6.10;;
77111;SDS011;66064;50.226;14.344;2023-02-21T08:47:17;6.40;;;5.32;;
77111;SDS011;66064;50.226;14.344;2023-02-21T08:49:43;5.70;;;4.47;;
77111;SDS011;66064;50.226;14.344;2023-02-21T08:52:14;6.28;;;4.53;;
77111;SDS011;66064;50.226;14.344;2023-02-21T08:54:41;5.30;;;4.50;;
77111;SDS011;66064;50.226;14.344;2023-02-21T08:57:07;5.35;;;4.10;;
77111;SDS011;66064;50.226;14.344;2023-02-21T08:59:34;5.53;;;5.00;;
77111;SDS011;66064;50.226;14.344;2023-02-21T09:02:02;5.75;;;3.95;;
77111;SDS011;66064;50.226;14.344;2023-02-21T09:04:28;8.52;;;5.40;;
77111;SDS011;66064;50.226;14.344;2023-02-21T09:06:54;5.07;;;4.47;;
77111;SDS011;66064;50.226;14.344;2023-02-21T09:09:21;6.05;;;4.72;;
77111;SDS011;66064;50.226;14.344;2023-02-21T09:11:47;5.95;;;5.13;;
77111;SDS011;66064;50.226;14.344;2023-02-21T09:14:14;5.75;;;5.25;;
77111;SDS011;66064;50.226;14.344;2023-02-21T09:16:41;8.52;;;5.47;;
77111;SDS011;66064;50.226;14.344;2023-02-21T09:19:07;9.30;;;5.93;;
77111;SDS011;66064;50.226;14.344;2023-02-21T09:21:34;9.98;;;6.40;;
77111;SDS011;66064;50.226;14.344;2023-02-21T09:24:09;7.18;;;5.03;;
77111;SDS011;66064;50.226;14.344;2023-02-21T09:26:35;7.15;;;5.68;;
77111;SDS011;66064;50.226;14.344;2023-02-21T09:29:01;10.35;;;7.15;;
77111;SDS011;66064;50.226;14.344;2023-02-21T09:31:27;6.88;;;6.03;;
77111;SDS011;66064;50.226;14.344;2023-02-21T09:33:53;9.30;;;7.20;;
77111;SDS011;66064;50.226;14.344;2023-02-21T09:36:19;7.40;;;5.93;;
77111;SDS011;66064;50.226;14.344;2023-02-21T09:38:49;6.95;;;5.35;;
77111;SDS011;66064;50.226;14.344;2023-02-21T09:41:16;7.57;;;5.53;;
77111;SDS011;66064;50.226;14.344;2023-02-21T09:43:46;7.50;;;5.78;;
77111;SDS011;66064;50.226;14.344;2023-02-21T09:48:52;7.18;;;6.47;;
77111;SDS011;66064;50.226;14.344;2023-02-21T09:51:18;7.25;;;6.57;;
77111;SDS011;66064;50.226;14.344;2023-02-21T09:53:45;6.88;;;6.10;;
77111;SDS011;66064;50.226;14.344;2023-02-21T09:58:56;6.30;;;5.25;;
77111;SDS011;66064;50.226;14.344;2023-02-21T10:15:58;7.38;;;4.97;;
77111;SDS011;66064;50.226;14.344;2023-02-21T10:18:39;6.50;;;5.13;;
77111;SDS011;66064;50.226;14.344;2023-02-21T10:21:54;6.95;;;5.80;;
77111;SDS011;66064;50.226;14.344;2023-02-21T10:24:28;7.25;;;6.00;;
77111;SDS011;66064;50.226;14.344;2023-02-21T10:29:34;5.93;;;5.35;;
77111;SDS011;66064;50.226;14.344;2023-02-21T10:32:13;6.70;;;5.32;;
77111;SDS011;66064;50.226;14.344;2023-02-21T10:34:40;7.00;;;5.85;;
77111;SDS011;66064;50.226;14.344;2023-02-21T10:40:15;6.05;;;4.68;;
77111;SDS011;66064;50.226;14.344;2023-02-21T10:43:04;7.95;;;5.63;;
77111;SDS011;66064;50.226;14.344;2023-02-21T10:45:35;5.80;;;5.00;;
77111;SDS011;66064;50.226;14.344;2023-02-21T10:48:07;6.70;;;5.38;;
77111;SDS011;66064;50.226;14.344;2023-02-21T10:50:49;7.72;;;6.32;;
77111;SDS011;66064;50.226;14.344;2023-02-21T10:53:35;5.63;;;4.88;;
77111;SDS011;66064;50.226;14.344;2023-02-21T11:07:27;6.40;;;5.53;;
77111;SDS011;66064;50.226;14.344;2023-02-21T11:09:47;7.53;;;6.22;;
77111;SDS011;66064;50.226;14.344;2023-02-21T11:17:22;7.20;;;6.63;;
77111;SDS011;66064;50.226;14.344;2023-02-21T11:24:59;6.03;;;5.40;;
77111;SDS011;66064;50.226;14.344;2023-02-21T11:27:30;6.30;;;5.78;;
77111;SDS011;66064;50.226;14.344;2023-02-21T11:30:02;6.28;;;5.68;;
77111;SDS011;66064;50.226;14.344;2023-02-21T11:32:36;6.53;;;5.85;;
77111;SDS011;66064;50.226;14.344;2023-02-21T11:37:46;6.40;;;5.80;;
77111;SDS011;66064;50.226;14.344;2023-02-21T11:40:49;6.60;;;5.95;;
77111;SDS011;66064;50.226;14.344;2023-02-21T11:45:35;8.45;;;6.50;;
77111;SDS011;66064;50.226;14.344;2023-02-21T11:48:06;6.40;;;5.53;;
77111;SDS011;66064;50.226;14.344;2023-02-21T11:50:42;6.88;;;6.25;;
77111;SDS011;66064;50.226;14.344;2023-02-21T11:53:18;6.00;;;5.50;;
77111;SDS011;66064;50.226;14.344;2023-02-21T11:55:55;7.28;;;6.20;;
77111;SDS011;66064;50.226;14.344;2023-02-21T11:58:34;7.43;;;6.72;;
77111;SDS011;66064;50.226;14.344;2023-02-21T12:01:10;7.68;;;5.35;;
77111;SDS011;66064;50.226;14.344;2023-02-21T12:15:00;6.63;;;6.03;;
77111;SDS011;66064;50.226;14.344;2023-02-21T12:25:24;5.13;;;4.70;;
77111;SDS011;66064;50.226;14.344;2023-02-21T12:27:53;5.70;;;4.75;;
77111;SDS011;66064;50.226;14.344;2023-02-21T12:30:50;5.82;;;5.32;;
77111;SDS011;66064;50.226;14.344;2023-02-21T12:33:49;5.50;;;5.00;;
77111;SDS011;66064;50.226;14.344;2023-02-21T12:44:17;5.88;;;5.30;;
77111;SDS011;66064;50.226;14.344;2023-02-21T12:46:49;4.45;;;4.05;;
77111;SDS011;66064;50.226;14.344;2023-02-21T12:49:22;5.47;;;5.07;;
77111;SDS011;66064;50.226;14.344;2023-02-21T12:52:13;5.43;;;4.38;;
77111;SDS011;66064;50.226;14.344;2023-02-21T12:54:49;5.80;;;5.10;;
77111;SDS011;66064;50.226;14.344;2023-02-21T12:57:25;6.57;;;4.53;;
77111;SDS011;66064;50.226;14.344;2023-02-21T13:02:29;4.53;;;4.20;;
77111;SDS011;66064;50.226;14.344;2023-02-21T13:05:06;4.47;;;4.15;;
77111;SDS011;66064;50.226;14.344;2023-02-21T13:07:42;5.40;;;4.90;;
77111;SDS011;66064;50.226;14.344;2023-02-21T13:10:18;4.43;;;4.03;;
77111;SDS011;66064;50.226;14.344;2023-02-21T13:15:42;4.57;;;4.15;;
77111;SDS011;66064;50.226;14.344;2023-02-21T13:18:23;5.15;;;4.60;;
77111;SDS011;66064;50.226;14.344;2023-02-21T13:21:28;4.95;;;4.53;;
77111;SDS011;66064;50.226;14.344;2023-02-21T13:32:56;4.65;;;4.25;;
77111;SDS011;66064;50.226;14.344;2023-02-21T13:35:25;5.85;;;4.78;;
77111;SDS011;66064;50.226;14.344;2023-02-21T13:38:07;5.03;;;4.43;;
77111;SDS011;66064;50.226;14.344;2023-02-21T13:40:51;5.20;;;4.45;;
77111;SDS011;66064;50.226;14.344;2023-02-21T13:43:25;4.90;;;4.50;;
77111;SDS011;66064;50.226;14.344;2023-02-21T13:51:52;5.30;;;4.70;;
77111;SDS011;66064;50.226;14.344;2023-02-21T13:54:21;5.22;;;4.72;;
77111;SDS011;66064;50.226;14.344;2023-02-21T13:56:50;5.47;;;4.95;;
77111;SDS011;66064;50.226;14.344;2023-02-21T14:01:48;5.00;;;4.45;;
77111;SDS011;66064;50.226;14.344;2023-02-21T14:04:48;4.93;;;4.22;;
77111;SDS011;66064;50.226;14.344;2023-02-21T14:08:22;4.85;;;4.45;;
77111;SDS011;66064;50.226;14.344;2023-02-21T14:10:28;7.47;;;5.25;;
77111;SDS011;66064;50.226;14.344;2023-02-21T14:18:39;6.53;;;4.45;;
77111;SDS011;66064;50.226;14.344;2023-02-21T14:21:35;5.00;;;4.55;;
77111;SDS011;66064;50.226;14.344;2023-02-21T14:24:18;5.53;;;4.97;;
77111;SDS011;66064;50.226;14.344;2023-02-21T14:29:30;6.95;;;4.78;;
77111;SDS011;66064;50.226;14.344;2023-02-21T14:37:16;5.80;;;5.30;;
77111;SDS011;66064;50.226;14.344;2023-02-21T14:39:51;5.40;;;4.90;;
77111;SDS011;66064;50.226;14.344;2023-02-21T15:04:50;5.55;;;5.15;;
77111;SDS011;66064;50.226;14.344;2023-02-21T15:07:47;5.55;;;5.10;;
77111;SDS011;66064;50.226;14.344;2023-02-21T15:12:53;5.15;;;4.50;;
77111;SDS011;66064;50.226;14.344;2023-02-21T15:15:25;5.88;;;5.32;;
77111;SDS011;66064;50.226;14.344;2023-02-21T15:17:56;5.13;;;4.72;;
77111;SDS011;66064;50.226;14.344;2023-02-21T15:20:25;5.85;;;5.35;;
77111;SDS011;66064;50.226;14.344;2023-02-21T15:22:55;5.55;;;5.10;;
77111;SDS011;66064;50.226;14.344;2023-02-21T15:25:26;5.70;;;5.20;;
77111;SDS011;66064;50.226;14.344;2023-02-21T15:27:54;6.45;;;5.85;;
77111;SDS011;66064;50.226;14.344;2023-02-21T15:33:15;8.90;;;7.18;;
77111;SDS011;66064;50.226;14.344;2023-02-21T15:35:59;5.93;;;5.40;;
77111;SDS011;66064;50.226;14.344;2023-02-21T15:41:42;7.38;;;6.00;;
77111;SDS011;66064;50.226;14.344;2023-02-21T15:58:01;29.65;;;15.90;;
77111;SDS011;66064;50.226;14.344;2023-02-21T16:00:40;23.15;;;14.50;;
77111;SDS011;66064;50.226;14.344;2023-02-21T16:06:12;9.45;;;6.47;;
77111;SDS011;66064;50.226;14.344;2023-02-21T16:11:43;4.63;;;4.22;;
77111;SDS011;66064;50.226;14.344;2023-02-21T16:14:17;6.20;;;5.60;;
77111;SDS011;66064;50.226;14.344;2023-02-21T16:16:58;7.93;;;5.07;;
77111;SDS011;66064;50.226;14.344;2023-02-21T16:19:52;7.20;;;6.28;;
77111;SDS011;66064;50.226;14.344;2023-02-21T16:27:36;6.95;;;6.25;;
77111;SDS011;66064;50.226;14.344;2023-02-21T16:30:10;9.98;;;6.90;;
77111;SDS011;66064;50.226;14.344;2023-02-21T16:32:42;8.52;;;6.70;;
77111;SDS011;66064;50.226;14.344;2023-02-21T16:35:14;9.00;;;6.97;;
77111;SDS011;66064;50.226;14.344;2023-02-21T16:37:46;11.60;;;7.25;;
77111;SDS011;66064;50.226;14.344;2023-02-21T16:40:14;8.70;;;7.55;;
77111;SDS011;66064;50.226;14.344;2023-02-21T16:42:46;9.23;;;8.32;;
77111;SDS011;66064;50.226;14.344;2023-02-21T16:45:12;23.38;;;13.70;;
77111;SDS011;66064;50.226;14.344;2023-02-21T16:47:38;13.63;;;12.15;;
77111;SDS011;66064;50.226;14.344;2023-02-21T16:50:04;12.52;;;8.93;;
77111;SDS011;66064;50.226;14.344;2023-02-21T16:52:39;10.45;;;9.35;;
77111;SDS011;66064;50.226;14.344;2023-02-21T16:55:05;10.05;;;9.10;;
77111;SDS011;66064;50.226;14.344;2023-02-21T16:57:31;8.27;;;7.28;;
77111;SDS011;66064;50.226;14.344;2023-02-21T16:59:57;9.48;;;8.20;;
77111;SDS011;66064;50.226;14.344;2023-02-21T17:02:23;9.98;;;8.40;;
77111;SDS011;66064;50.226;14.344;2023-02-21T17:04:49;9.20;;;7.88;;
77111;SDS011;66064;50.226;14.344;2023-02-21T17:07:15;10.48;;;8.40;;
77111;SDS011;66064;50.226;14.344;2023-02-21T17:09:40;9.43;;;8.35;;
77111;SDS011;66064;50.226;14.344;2023-02-21T17:12:07;13.65;;;11.40;;
77111;SDS011;66064;50.226;14.344;2023-02-21T17:14:36;12.98;;;10.32;;
77111;SDS011;66064;50.226;14.344;2023-02-21T17:17:02;12.77;;;10.20;;
77111;SDS011;66064;50.226;14.344;2023-02-21T17:19:28;11.60;;;9.05;;
77111;SDS011;66064;50.226;14.344;2023-02-21T17:21:54;11.05;;;9.48;;
77111;SDS011;66064;50.226;14.344;2023-02-21T17:24:22;10.95;;;8.73;;
77111;SDS011;66064;50.226;14.344;2023-02-21T17:26:50;10.15;;;8.48;;
77111;SDS011;66064;50.226;14.344;2023-02-21T17:29:17;11.32;;;10.32;;
77111;SDS011;66064;50.226;14.344;2023-02-21T17:31:44;10.55;;;9.55;;
77111;SDS011;66064;50.226;14.344;2023-02-21T17:34:11;11.07;;;9.82;;
77111;SDS011;66064;50.226;14.344;2023-02-21T17:36:38;11.90;;;10.75;;
77111;SDS011;66064;50.226;14.344;2023-02-21T17:39:04;11.20;;;10.10;;
77111;SDS011;66064;50.226;14.344;2023-02-21T17:41:31;11.13;;;10.02;;
77111;SDS011;66064;50.226;14.344;2023-02-21T17:43:57;10.93;;;9.82;;
77111;SDS011;66064;50.226;14.344;2023-02-21T17:46:23;10.70;;;9.60;;
77111;SDS011;66064;50.226;14.344;2023-02-21T17:48:49;10.10;;;9.23;;
77111;SDS011;66064;50.226;14.344;2023-02-21T17:51:16;10.30;;;9.23;;
77111;SDS011;66064;50.226;14.344;2023-02-21T17:53:49;12.00;;;9.02;;
77111;SDS011;66064;50.226;14.344;2023-02-21T17:56:20;10.13;;;9.13;;
77111;SDS011;66064;50.226;14.344;2023-02-21T17:58:49;15.48;;;11.82;;
77111;SDS011;66064;50.226;14.344;2023-02-21T18:01:18;12.45;;;10.40;;
77111;SDS011;66064;50.226;14.344;2023-02-21T18:03:45;10.85;;;9.25;;
77111;SDS011;66064;50.226;14.344;2023-02-21T18:06:12;12.93;;;11.70;;
77111;SDS011;66064;50.226;14.344;2023-02-21T18:08:38;33.33;;;17.50;;
77111;SDS011;66064;50.226;14.344;2023-02-21T18:11:07;92.82;;;40.40;;
77111;SDS011;66064;50.226;14.344;2023-02-21T18:13:35;197.60;;;65.68;;
77111;SDS011;66064;50.226;14.344;2023-02-21T18:16:01;32.97;;;15.50;;
77111;SDS011;66064;50.226;14.344;2023-02-21T18:18:29;27.95;;;18.02;;
77111;SDS011;66064;50.226;14.344;2023-02-21T18:20:56;38.50;;;23.65;;